LHR weather

London Heathrow Airport
London, England, United Kingdom

Public forecast

Using degrees Celsius for public forecast. Weather courtesy of forecast.io.

METAR (pilot weather report)

Retrieved 2017/01/20 05:20 UTC (19 minutes ago):

EGLL 200520Z AUTO 03004KT 9000 NCD M01/M02 Q1034 NOSIG

TAF (pilot weather forecast)

Forecast is more than 12 hours old.

Retrieved 2017/01/19 00:15 UTC (1 day ago):

TAF EGLL 192253Z 2000/2106 05004KT 7000 NSC PROB40 2001/2009 4500 HZ BECMG 2010/2013 9999 BECMG 2018/2021 6000 PROB40 2102/2106 3000 BR